Time;durP1;ratioP1;P1;durP2;ratioP2;P2;SDS_P1;SDS_P2;PMS_P1;PMS_P2;Temp;Humidity;BMP_temperature;BMP_pressure;BME280_temperature;BME280_humidity;BME280_pressure;Samples;Min_cycle;Max_cycle;Signal;HPM_P1;HPM_P2
2023/07/17 00:01:03;;;;;;;0.80;0.80;;;22.30;97.50;;;;;;5016058;28;20259;-67
2023/07/17 00:03:32;;;;;;;0.77;0.77;;;22.30;97.60;;;;;;5015245;28;20277;-66
2023/07/17 00:05:59;;;;;;;1.10;1.00;;;22.30;97.70;;;;;;5030924;28;20183;-67
2023/07/17 00:08:27;;;;;;;0.80;0.70;;;22.40;98.20;;;;;;5030517;28;20210;-67
2023/07/17 00:10:54;;;;;;;0.88;0.88;;;22.30;97.80;;;;;;5018138;28;20286;-67
2023/07/17 00:13:21;;;;;;;0.93;0.93;;;22.30;97.90;;;;;;4997171;28;20289;-66
2023/07/17 00:15:48;;;;;;;0.80;0.80;;;22.30;98.00;;;;;;5030685;28;20264;-67
2023/07/17 00:18:15;;;;;;;0.80;0.80;;;22.30;98.10;;;;;;5031353;28;20203;-67
2023/07/17 00:20:44;;;;;;;0.77;0.77;;;22.30;98.10;;;;;;5021322;28;20360;-67
2023/07/17 00:23:11;;;;;;;0.80;0.80;;;22.30;98.20;;;;;;5013210;28;20382;-66
2023/07/17 00:25:38;;;;;;;0.90;0.90;;;22.30;98.30;;;;;;5017787;28;20230;-66
2023/07/17 00:28:05;;;;;;;1.08;1.08;;;22.30;98.40;;;;;;5029493;28;20608;-66
2023/07/17 00:30:32;;;;;;;1.00;1.00;;;22.30;98.60;;;;;;5030460;28;20285;-66
2023/07/17 00:32:59;;;;;;;0.98;0.90;;;22.30;98.60;;;;;;5001634;28;20206;-67
2023/07/17 00:35:26;;;;;;;0.88;0.82;;;22.20;98.70;;;;;;5015008;28;20281;-67
2023/07/17 00:37:55;;;;;;;0.95;0.75;;;22.20;98.90;;;;;;5013852;28;20226;-67
2023/07/17 00:40:23;;;;;;;0.95;0.93;;;22.20;99.10;;;;;;5008477;28;20207;-67
2023/07/17 00:42:56;;;;;;;1.02;1.00;;;22.30;99.20;;;;;;5004754;28;20293;-67
2023/07/17 00:45:23;;;;;;;1.10;1.10;;;22.20;99.80;;;;;;4997110;28;20203;-67
2023/07/17 00:47:52;;;;;;;1.02;0.90;;;22.20;99.60;;;;;;5023886;28;20553;-67
2023/07/17 00:50:19;;;;;;;0.85;0.73;;;22.10;99.80;;;;;;5030525;28;20252;-67
2023/07/17 00:52:47;;;;;;;1.00;1.00;;;22.10;99.90;;;;;;5024814;28;20218;-67
2023/07/17 00:55:19;;;;;;;1.38;1.08;;;22.10;99.90;;;;;;5001252;28;20260;-67
2023/07/17 00:57:47;;;;;;;1.08;1.08;;;22.10;99.90;;;;;;5029069;28;20309;-66
2023/07/17 01:02:59;;;;;;;0.90;0.90;;;22.10;99.90;;;;;;5375524;22;21037;-65
2023/07/17 01:05:26;;;;;;;0.80;0.80;;;22.20;99.90;;;;;;5026791;28;20218;-65
2023/07/17 01:07:56;;;;;;;0.90;0.90;;;22.10;99.90;;;;;;5048404;28;20186;-66
2023/07/17 01:10:24;;;;;;;0.85;0.85;;;22.10;99.90;;;;;;5045681;28;20275;-65
2023/07/17 01:12:51;;;;;;;0.90;0.90;;;22.10;99.90;;;;;;5032737;28;20194;-66
2023/07/17 01:15:18;;;;;;;1.20;1.20;;;22.10;99.90;;;;;;5046958;28;20509;-65
2023/07/17 01:17:45;;;;;;;1.25;1.20;;;22.10;99.90;;;;;;5047352;28;20259;-65
2023/07/17 01:20:13;;;;;;;1.50;1.30;;;22.10;99.90;;;;;;5044594;28;20197;-66
2023/07/17 01:22:58;;;;;;;1.10;1.10;;;22.10;99.90;;;;;;5046596;28;20202;-65
2023/07/17 01:25:25;;;;;;;0.80;0.80;;;22.10;99.90;;;;;;5050785;28;20661;-65
2023/07/17 01:27:52;;;;;;;0.90;0.90;;;22.10;99.90;;;;;;5051007;28;20645;-65
2023/07/17 01:30:22;;;;;;;1.27;1.25;;;22.10;99.90;;;;;;5034185;28;20194;-66
2023/07/17 01:32:49;;;;;;;1.30;1.10;;;22.00;99.90;;;;;;5055429;28;20553;-66
2023/07/17 01:35:16;;;;;;;1.20;1.17;;;22.00;99.90;;;;;;5051615;28;20673;-65
2023/07/17 01:37:44;;;;;;;1.40;1.30;;;22.00;99.90;;;;;;5051375;28;20681;-67
2023/07/17 01:40:17;;;;;;;1.83;1.25;;;22.10;99.90;;;;;;5051259;28;20198;-65
2023/07/17 01:42:44;;;;;;;1.10;1.10;;;22.10;99.90;;;;;;5050871;28;20881;-65
2023/07/17 01:45:11;;;;;;;1.20;1.10;;;22.10;99.90;;;;;;5051984;28;20198;-65
2023/07/17 01:47:38;;;;;;;1.20;1.20;;;22.10;99.90;;;;;;5050715;28;20197;-66
2023/07/17 01:50:06;;;;;;;1.25;1.25;;;22.10;99.90;;;;;;5050582;28;20692;-65
2023/07/17 01:52:33;;;;;;;1.55;1.45;;;22.00;99.90;;;;;;5051016;28;20680;-65
2023/07/17 01:55:00;;;;;;;1.30;1.20;;;22.00;99.90;;;;;;5033835;28;20198;-65
2023/07/17 01:57:28;;;;;;;1.13;1.13;;;22.00;99.90;;;;;;5032155;28;20268;-66
2023/07/17 01:59:55;;;;;;;1.30;1.30;;;22.00;99.90;;;;;;5028483;28;20205;-67
2023/07/17 02:02:23;;;;;;;1.30;1.20;;;22.00;99.90;;;;;;5050684;28;20276;-65
2023/07/17 02:04:50;;;;;;;1.25;1.20;;;22.00;99.90;;;;;;5050072;28;20232;-65
2023/07/17 02:07:17;;;;;;;1.13;1.13;;;22.00;99.90;;;;;;5032477;28;20664;-65
2023/07/17 02:09:44;;;;;;;1.15;1.05;;;22.10;99.90;;;;;;5025304;28;20198;-66
2023/07/17 02:12:12;;;;;;;1.30;1.20;;;22.10;99.90;;;;;;5031693;28;20213;-66
2023/07/17 02:14:40;;;;;;;1.15;1.05;;;22.10;99.90;;;;;;5033136;28;20202;-66
2023/07/17 02:17:07;;;;;;;1.52;1.02;;;22.20;99.90;;;;;;5050236;28;20703;-64
2023/07/17 02:19:34;;;;;;;2.38;1.50;;;22.10;99.90;;;;;;5050213;28;20255;-64
2023/07/17 02:22:01;;;;;;;1.10;1.10;;;22.10;99.90;;;;;;5050896;28;20673;-65
2023/07/17 02:24:28;;;;;;;2.10;1.55;;;22.10;99.90;;;;;;5034251;28;20194;-65
2023/07/17 02:26:58;;;;;;;1.10;1.10;;;22.10;99.90;;;;;;5042491;28;20189;-65
2023/07/17 02:29:25;;;;;;;1.13;1.10;;;22.10;99.90;;;;;;5048038;28;20197;-64
2023/07/17 02:31:54;;;;;;;1.02;1.02;;;22.10;99.90;;;;;;5046689;28;20189;-65
2023/07/17 02:34:21;;;;;;;0.88;0.88;;;22.10;99.90;;;;;;5050009;28;20198;-65
2023/07/17 02:36:49;;;;;;;1.42;1.33;;;22.10;99.90;;;;;;5031763;28;20329;-65
2023/07/17 02:39:16;;;;;;;2.00;1.80;;;22.10;99.90;;;;;;5045682;28;20850;-64
2023/07/17 02:41:43;;;;;;;1.50;1.40;;;22.10;99.90;;;;;;5035427;28;20213;-65
2023/07/17 02:44:10;;;;;;;2.85;1.48;;;22.10;99.90;;;;;;5032007;28;20206;-65
2023/07/17 02:46:37;;;;;;;2.22;1.55;;;22.20;99.90;;;;;;5050891;28;20205;-65
2023/07/17 02:49:09;;;;;;;1.25;1.15;;;22.20;99.90;;;;;;5031166;28;20233;-64
2023/07/17 02:51:36;;;;;;;1.25;1.25;;;22.20;99.90;;;;;;5051005;28;20194;-65
2023/07/17 02:54:03;;;;;;;1.83;1.67;;;22.20;99.90;;;;;;5031771;28;20214;-65
2023/07/17 02:56:30;;;;;;;1.20;1.10;;;22.20;99.90;;;;;;5032090;28;20202;-65
2023/07/17 02:58:58;;;;;;;2.00;1.30;;;22.20;99.90;;;;;;5031620;28;20201;-65
2023/07/17 03:01:25;;;;;;;1.00;1.00;;;22.30;99.90;;;;;;5029493;28;20631;-65
2023/07/17 03:03:52;;;;;;;1.55;1.45;;;22.20;99.90;;;;;;5045766;28;20226;-66
2023/07/17 03:06:21;;;;;;;1.67;1.30;;;22.20;99.90;;;;;;5047424;28;20190;-66
2023/07/17 03:08:48;;;;;;;1.27;1.27;;;22.20;99.90;;;;;;5021969;28;20220;-66
2023/07/17 03:11:15;;;;;;;1.30;1.20;;;22.30;99.90;;;;;;5049585;28;20668;-66
2023/07/17 03:13:42;;;;;;;1.33;1.27;;;22.30;99.90;;;;;;5048613;28;20208;-66
2023/07/17 03:16:10;;;;;;;1.35;1.25;;;22.30;99.90;;;;;;5032419;28;20748;-66
2023/07/17 03:18:37;;;;;;;1.90;1.40;;;22.20;99.90;;;;;;5031207;28;20310;-66
2023/07/17 03:21:04;;;;;;;1.70;1.60;;;22.30;99.90;;;;;;5049353;28;20284;-66
2023/07/17 03:23:33;;;;;;;3.05;1.70;;;22.30;99.90;;;;;;5032195;28;20849;-66
2023/07/17 03:26:00;;;;;;;1.30;1.30;;;22.30;99.90;;;;;;5049331;28;20213;-66
2023/07/17 03:28:27;;;;;;;1.20;1.20;;;22.40;99.90;;;;;;5049422;28;20198;-66
2023/07/17 03:30:56;;;;;;;1.20;1.10;;;22.30;99.90;;;;;;5037035;28;20664;-65
2023/07/17 03:33:24;;;;;;;1.02;1.00;;;22.30;99.90;;;;;;5049430;28;20392;-65
2023/07/17 03:35:51;;;;;;;1.33;1.20;;;22.30;99.90;;;;;;5049612;28;20491;-65
2023/07/17 03:38:19;;;;;;;1.30;1.30;;;22.30;99.90;;;;;;5031129;28;20264;-65
2023/07/17 03:40:48;;;;;;;1.08;1.08;;;22.30;99.90;;;;;;5035041;28;20233;-66
2023/07/17 03:43:15;;;;;;;1.40;1.30;;;22.30;99.90;;;;;;5034118;28;20277;-65
2023/07/17 03:45:42;;;;;;;1.60;1.50;;;22.40;99.90;;;;;;5034477;28;20277;-65
2023/07/17 03:48:10;;;;;;;1.48;1.38;;;22.40;99.90;;;;;;5033135;28;20259;-64
2023/07/17 03:50:40;;;;;;;1.20;1.20;;;22.40;99.90;;;;;;5033110;28;20190;-65
2023/07/17 03:53:07;;;;;;;1.85;1.27;;;22.40;99.90;;;;;;5050204;28;20198;-65
2023/07/17 03:55:35;;;;;;;1.02;1.02;;;22.40;99.90;;;;;;5033195;28;20209;-63
2023/07/17 03:58:04;;;;;;;1.27;1.25;;;22.40;99.90;;;;;;5032053;28;20619;-65
2023/07/17 04:00:31;;;;;;;1.60;1.50;;;22.40;99.90;;;;;;5032406;28;20221;-65
2023/07/17 04:02:58;;;;;;;1.15;1.10;;;22.40;99.90;;;;;;5048977;28;20252;-65
2023/07/17 04:05:38;;;;;;;1.00;1.00;;;22.40;99.90;;;;;;5024740;28;20233;-66
2023/07/17 04:08:05;;;;;;;1.10;1.10;;;22.50;99.90;;;;;;5030242;28;20208;-66
2023/07/17 04:10:32;;;;;;;1.20;1.20;;;22.40;99.90;;;;;;5024243;28;20215;-66
2023/07/17 04:12:59;;;;;;;1.60;1.50;;;22.50;99.90;;;;;;5026933;28;20193;-65
2023/07/17 04:15:30;;;;;;;1.50;1.40;;;22.40;99.90;;;;;;5029601;28;20210;-65
2023/07/17 04:17:57;;;;;;;1.20;1.10;;;22.40;99.90;;;;;;5050851;28;20209;-66
2023/07/17 04:20:24;;;;;;;2.17;1.70;;;22.40;99.90;;;;;;5048852;28;20198;-66
2023/07/17 04:22:51;;;;;;;2.85;1.75;;;22.40;99.90;;;;;;5034375;28;20202;-66
2023/07/17 04:25:19;;;;;;;1.33;1.30;;;22.40;99.90;;;;;;5041934;28;20190;-65
2023/07/17 04:27:46;;;;;;;1.98;1.67;;;22.40;99.90;;;;;;5029829;28;20444;-66
2023/07/17 04:30:13;;;;;;;1.88;1.77;;;22.40;99.90;;;;;;5049452;28;20222;-65
2023/07/17 04:32:43;;;;;;;1.55;1.45;;;22.40;99.90;;;;;;5030502;28;20217;-66
2023/07/17 04:35:11;;;;;;;1.35;1.35;;;22.40;99.90;;;;;;5030754;28;20213;-66
2023/07/17 04:37:40;;;;;;;1.42;1.33;;;22.30;99.90;;;;;;5039972;28;20302;-66
2023/07/17 04:40:09;;;;;;;1.08;1.08;;;22.30;99.90;;;;;;5048863;28;20636;-66
2023/07/17 04:42:36;;;;;;;1.88;1.77;;;22.30;99.90;;;;;;5038794;28;20633;-67
2023/07/17 04:45:05;;;;;;;1.95;1.75;;;22.30;99.90;;;;;;5031439;28;20194;-66
2023/07/17 04:47:33;;;;;;;1.80;1.70;;;22.30;99.90;;;;;;5038678;28;20646;-66
2023/07/17 04:50:01;;;;;;;1.95;1.77;;;22.30;99.90;;;;;;5030586;28;20208;-66
2023/07/17 04:52:33;;;;;;;1.70;1.52;;;22.30;99.90;;;;;;5020109;28;20194;-65
2023/07/17 04:55:00;;;;;;;2.50;2.30;;;22.40;99.90;;;;;;5048019;28;20310;-65
2023/07/17 04:57:27;;;;;;;2.67;2.47;;;22.40;99.90;;;;;;5047822;28;20626;-66
2023/07/17 04:59:56;;;;;;;2.30;2.20;;;22.40;99.90;;;;;;5034391;28;20275;-65
2023/07/17 05:02:23;;;;;;;3.75;2.50;;;22.50;99.90;;;;;;5041741;28;20232;-65
2023/07/17 05:04:50;;;;;;;2.67;2.47;;;22.50;99.90;;;;;;5028273;28;20286;-65
2023/07/17 05:07:19;;;;;;;2.85;2.65;;;22.60;99.90;;;;;;5032970;28;20606;-65
2023/07/17 05:09:47;;;;;;;3.45;2.80;;;22.60;99.90;;;;;;5035722;28;20254;-65
2023/07/17 05:12:14;;;;;;;3.38;2.67;;;22.60;99.90;;;;;;5036777;28;20221;-65
2023/07/17 05:14:44;;;;;;;2.60;2.40;;;22.60;99.90;;;;;;5054950;28;20258;-65
2023/07/17 05:17:11;;;;;;;3.08;2.28;;;22.60;99.90;;;;;;5054844;28;20937;-65
2023/07/17 05:19:38;;;;;;;3.65;2.10;;;22.70;99.90;;;;;;5036371;28;20299;-65
2023/07/17 05:22:06;;;;;;;2.13;1.90;;;22.70;99.90;;;;;;5036975;28;20194;-65
2023/07/17 05:24:35;;;;;;;2.28;2.05;;;22.70;99.90;;;;;;5037064;28;20275;-65
2023/07/17 05:27:02;;;;;;;2.45;2.25;;;22.70;99.90;;;;;;5040906;28;20280;-66
2023/07/17 05:29:29;;;;;;;2.90;2.20;;;22.70;99.90;;;;;;5054988;28;20209;-65
2023/07/17 05:31:57;;;;;;;1.75;1.65;;;22.80;99.90;;;;;;5036860;28;20364;-67
2023/07/17 05:34:24;;;;;;;2.60;2.08;;;22.70;99.90;;;;;;5037106;28;20201;-67
2023/07/17 05:36:51;;;;;;;3.17;1.90;;;22.80;99.90;;;;;;5037561;28;20217;-68
2023/07/17 05:39:19;;;;;;;2.20;1.92;;;22.80;99.90;;;;;;5029256;28;20309;-67
2023/07/17 05:41:47;;;;;;;2.28;1.60;;;22.80;99.90;;;;;;5055217;28;20221;-68
2023/07/17 05:44:14;;;;;;;2.92;2.05;;;22.80;99.90;;;;;;5042006;28;20538;-68
2023/07/17 05:46:41;;;;;;;1.80;1.70;;;22.80;99.90;;;;;;5037700;28;20680;-67
2023/07/17 05:49:09;;;;;;;4.15;2.30;;;22.80;99.90;;;;;;5038601;28;20755;-67
2023/07/17 05:51:37;;;;;;;5.07;2.08;;;22.80;99.90;;;;;;5037717;28;20213;-67
2023/07/17 05:54:04;;;;;;;2.22;1.63;;;22.80;99.90;;;;;;5035135;28;20201;-67
2023/07/17 05:56:31;;;;;;;2.00;1.90;;;22.80;99.90;;;;;;5055528;28;20213;-67
2023/07/17 05:58:59;;;;;;;4.88;2.20;;;22.80;99.90;;;;;;5041190;28;20301;-67
2023/07/17 06:01:27;;;;;;;2.17;2.08;;;22.80;99.90;;;;;;5037368;28;20658;-67
2023/07/17 06:03:54;;;;;;;2.35;2.15;;;22.80;99.90;;;;;;5028009;28;20228;-67
2023/07/17 06:06:21;;;;;;;2.60;1.85;;;22.80;99.90;;;;;;5036024;28;20285;-67
2023/07/17 06:08:48;;;;;;;2.40;2.20;;;22.80;99.90;;;;;;5052392;28;20209;-67
2023/07/17 06:11:15;;;;;;;2.42;2.33;;;22.80;99.90;;;;;;5051366;28;20255;-68
2023/07/17 06:13:42;;;;;;;2.42;2.20;;;22.80;99.90;;;;;;5030362;28;20228;-68
2023/07/17 06:16:11;;;;;;;2.28;2.17;;;22.80;99.90;;;;;;5051170;28;20205;-68
2023/07/17 06:18:38;;;;;;;2.33;2.10;;;22.80;99.90;;;;;;5045987;28;20209;-67
2023/07/17 06:21:05;;;;;;;2.30;2.10;;;22.80;99.90;;;;;;5050265;28;20281;-67
2023/07/17 06:23:32;;;;;;;2.95;1.95;;;22.90;99.90;;;;;;5049819;28;20690;-67
2023/07/17 06:26:00;;;;;;;2.55;2.00;;;22.90;99.90;;;;;;5051287;28;20229;-67
2023/07/17 06:28:28;;;;;;;4.97;2.10;;;23.00;99.90;;;;;;5031975;28;20256;-68
2023/07/17 06:30:56;;;;;;;2.67;2.33;;;23.00;99.90;;;;;;5046355;28;20465;-67
2023/07/17 06:33:24;;;;;;;1.90;1.80;;;23.10;99.90;;;;;;5030406;28;20205;-67
2023/07/17 06:35:51;;;;;;;1.95;1.85;;;23.10;99.90;;;;;;5027801;28;20193;-66
2023/07/17 06:38:18;;;;;;;1.60;1.50;;;23.20;99.90;;;;;;5049062;28;20205;-66
2023/07/17 06:40:45;;;;;;;1.60;1.60;;;23.20;99.90;;;;;;5049124;28;20206;-66
2023/07/17 06:43:12;;;;;;;1.70;1.60;;;23.30;99.90;;;;;;5049560;28;20296;-67
2023/07/17 06:45:40;;;;;;;1.65;1.55;;;23.30;99.90;;;;;;5048979;28;20202;-67
2023/07/17 06:48:07;;;;;;;1.60;1.50;;;23.40;99.90;;;;;;5048463;28;20194;-67
2023/07/17 06:50:35;;;;;;;1.80;1.70;;;23.40;99.90;;;;;;5049694;28;20661;-67
2023/07/17 06:53:02;;;;;;;2.10;1.98;;;23.50;99.90;;;;;;5048947;28;20194;-67
2023/07/17 06:55:29;;;;;;;2.72;2.47;;;23.60;99.90;;;;;;5049117;28;20729;-67
2023/07/17 06:57:56;;;;;;;2.55;2.35;;;23.60;99.90;;;;;;5044399;28;20203;-67
2023/07/17 07:00:23;;;;;;;1.80;1.70;;;23.70;99.90;;;;;;5050007;28;20194;-67
2023/07/17 07:02:51;;;;;;;2.00;1.80;;;23.70;99.90;;;;;;5047288;28;20344;-67
2023/07/17 07:05:18;;;;;;;3.38;2.38;;;23.70;99.90;;;;;;5048724;28;20205;-67
2023/07/17 07:07:46;;;;;;;2.75;2.42;;;23.80;99.90;;;;;;5049121;28;20221;-67
2023/07/17 07:10:13;;;;;;;2.15;1.95;;;23.80;99.90;;;;;;5049616;28;20216;-67
2023/07/17 07:12:40;;;;;;;2.00;1.90;;;23.90;99.90;;;;;;5049884;28;20626;-66
2023/07/17 07:15:09;;;;;;;3.35;2.50;;;24.00;99.90;;;;;;5048446;28;20722;-65
2023/07/17 07:17:36;;;;;;;5.45;3.15;;;24.00;99.90;;;;;;5049254;28;20197;-66
2023/07/17 07:20:04;;;;;;;2.40;2.20;;;24.10;99.90;;;;;;5047472;28;20210;-65
2023/07/17 07:22:32;;;;;;;3.05;2.33;;;24.10;99.90;;;;;;5031680;28;20881;-65
2023/07/17 07:25:00;;;;;;;3.03;2.58;;;24.20;99.90;;;;;;5048408;28;20246;-65
2023/07/17 07:27:29;;;;;;;2.40;2.30;;;24.20;99.90;;;;;;5049813;28;20221;-65
2023/07/17 07:29:56;;;;;;;2.28;2.10;;;24.30;99.90;;;;;;5046057;28;20202;-65
2023/07/17 07:32:23;;;;;;;1.90;1.80;;;24.40;99.90;;;;;;5047236;28;20201;-65
2023/07/17 07:34:50;;;;;;;2.03;1.92;;;24.50;99.90;;;;;;5048548;28;20251;-65
2023/07/17 07:37:17;;;;;;;1.40;1.40;;;24.50;99.90;;;;;;5031646;28;20565;-64
2023/07/17 07:39:44;;;;;;;1.73;1.63;;;24.60;99.90;;;;;;5048680;28;20221;-65
2023/07/17 07:42:12;;;;;;;3.42;1.58;;;24.70;99.90;;;;;;5048302;28;20224;-65
2023/07/17 07:44:39;;;;;;;1.35;1.30;;;24.70;99.90;;;;;;5048556;28;20510;-65
2023/07/17 07:47:07;;;;;;;2.30;2.10;;;24.80;99.90;;;;;;5048048;28;20198;-66
2023/07/17 07:49:34;;;;;;;2.40;2.20;;;24.80;99.90;;;;;;5031788;28;20305;-66
2023/07/17 07:52:01;;;;;;;2.40;2.20;;;24.90;99.90;;;;;;5047864;28;20194;-65
2023/07/17 07:54:28;;;;;;;2.42;2.10;;;25.00;99.90;;;;;;5047744;28;20189;-66
2023/07/17 07:56:55;;;;;;;3.20;1.80;;;25.10;99.90;;;;;;5043425;28;20562;-64
2023/07/17 07:59:23;;;;;;;2.20;2.10;;;25.20;99.90;;;;;;5045542;28;20639;-65
2023/07/17 08:01:50;;;;;;;3.72;2.28;;;25.30;99.90;;;;;;5029395;28;20626;-65
2023/07/17 08:04:17;;;;;;;2.85;2.65;;;25.40;99.90;;;;;;5045429;28;20256;-66
2023/07/17 08:06:44;;;;;;;2.33;2.22;;;25.40;99.90;;;;;;5047870;28;20278;-66
2023/07/17 08:09:11;;;;;;;2.88;2.58;;;25.50;99.90;;;;;;5027525;28;20304;-65
2023/07/17 08:11:40;;;;;;;3.10;2.08;;;25.60;99.90;;;;;;5042660;28;20210;-65
2023/07/17 08:14:07;;;;;;;2.50;2.30;;;25.70;99.90;;;;;;5042616;28;20197;-66
2023/07/17 08:16:35;;;;;;;2.78;2.55;;;25.70;99.90;;;;;;5047800;28;20221;-65
2023/07/17 08:19:02;;;;;;;2.65;2.45;;;25.80;99.90;;;;;;5046595;28;20301;-66
2023/07/17 08:21:29;;;;;;;2.20;2.00;;;25.90;99.90;;;;;;5047412;28;20208;-65
2023/07/17 08:23:56;;;;;;;2.45;2.30;;;26.00;99.90;;;;;;5047623;28;20244;-65
2023/07/17 08:26:24;;;;;;;3.05;2.25;;;26.10;99.90;;;;;;5046512;28;20205;-65
2023/07/17 08:28:51;;;;;;;2.28;2.08;;;26.30;99.90;;;;;;5047108;28;20331;-65
2023/07/17 08:31:18;;;;;;;1.65;1.55;;;26.40;99.90;;;;;;5046772;28;20284;-66
2023/07/17 08:33:47;;;;;;;5.32;2.88;;;26.40;99.90;;;;;;5046308;28;20190;-65
2023/07/17 08:36:14;;;;;;;1.80;1.70;;;26.50;99.90;;;;;;5028783;28;20260;-65
2023/07/17 08:38:41;;;;;;;2.25;1.67;;;26.50;99.90;;;;;;5046839;28;20218;-65
2023/07/17 08:41:09;;;;;;;1.98;1.50;;;26.60;99.90;;;;;;5047128;28;20289;-65
2023/07/17 08:43:37;;;;;;;1.80;1.70;;;26.70;98.60;;;;;;5044004;28;20186;-65
2023/07/17 08:46:04;;;;;;;2.05;1.50;;;26.80;97.00;;;;;;5046744;28;20202;-65
2023/07/17 08:48:32;;;;;;;1.58;1.48;;;26.80;93.50;;;;;;5046850;28;20198;-66
2023/07/17 08:51:01;;;;;;;1.77;1.67;;;26.90;93.50;;;;;;5045971;28;20687;-65
2023/07/17 08:53:31;;;;;;;2.05;1.50;;;27.00;93.20;;;;;;5045312;28;20186;-65
2023/07/17 08:55:58;;;;;;;1.50;1.40;;;27.10;91.80;;;;;;5044850;28;20593;-65
2023/07/17 08:58:28;;;;;;;2.80;1.73;;;27.20;90.80;;;;;;5046955;28;20244;-66
2023/07/17 09:00:56;;;;;;;1.50;1.40;;;27.20;87.60;;;;;;5047596;28;20190;-66
2023/07/17 09:03:23;;;;;;;4.20;1.83;;;27.30;86.80;;;;;;5028121;28;20257;-65
2023/07/17 09:05:50;;;;;;;1.92;1.50;;;27.30;82.80;;;;;;5042861;28;20267;-65
2023/07/17 09:08:19;;;;;;;1.52;1.42;;;27.30;80.10;;;;;;5046956;28;20189;-65
2023/07/17 09:10:46;;;;;;;1.65;1.55;;;27.30;80.00;;;;;;5046852;28;20243;-65
2023/07/17 09:13:14;;;;;;;1.92;1.77;;;27.30;76.10;;;;;;5045219;28;20207;-66
2023/07/17 09:15:41;;;;;;;2.13;1.80;;;27.40;72.90;;;;;;5027641;28;20194;-66
2023/07/17 09:18:08;;;;;;;2.00;1.83;;;27.50;72.60;;;;;;5046718;28;20217;-66
2023/07/17 09:20:35;;;;;;;2.78;2.08;;;27.50;72.50;;;;;;5046999;28;20213;-66
2023/07/17 09:23:03;;;;;;;1.98;1.77;;;27.70;71.50;;;;;;5028169;28;20202;-66
2023/07/17 09:25:31;;;;;;;1.70;1.42;;;27.70;71.30;;;;;;5046663;28;20633;-66
2023/07/17 09:27:59;;;;;;;1.65;1.55;;;27.80;69.70;;;;;;5046535;28;20182;-66
2023/07/17 09:30:28;;;;;;;1.58;1.38;;;27.80;68.30;;;;;;5047790;28;20287;-65
2023/07/17 09:33:05;;;;;;;2.60;1.80;;;27.80;68.10;;;;;;5046323;28;20206;-65
2023/07/17 09:35:32;;;;;;;2.40;1.70;;;27.70;65.00;;;;;;5025591;28;20197;-65
2023/07/17 09:37:59;;;;;;;1.83;1.73;;;27.70;65.10;;;;;;5046515;28;20217;-65
2023/07/17 09:40:27;;;;;;;2.65;1.50;;;27.70;65.70;;;;;;5029044;28;20220;-65
2023/07/17 09:42:56;;;;;;;2.15;1.52;;;27.80;67.50;;;;;;5044405;28;20198;-65
2023/07/17 09:45:25;;;;;;;1.67;1.58;;;27.80;67.60;;;;;;5045965;28;20194;-65
2023/07/17 09:47:52;;;;;;;1.70;1.60;;;27.80;66.80;;;;;;5050120;28;20277;-65
2023/07/17 09:50:23;;;;;;;1.80;1.70;;;27.70;66.00;;;;;;5032417;28;20213;-65
2023/07/17 09:52:51;;;;;;;1.63;1.52;;;27.70;65.00;;;;;;5049693;28;20665;-65
2023/07/17 09:55:20;;;;;;;1.80;1.70;;;27.70;65.60;;;;;;5052093;28;20232;-65
2023/07/17 09:57:50;;;;;;;2.22;1.95;;;27.80;64.50;;;;;;5049598;28;20194;-66
2023/07/17 10:00:21;;;;;;;2.17;1.98;;;27.80;62.10;;;;;;5052118;28;20221;-65
2023/07/17 10:02:57;;;;;;;2.00;1.90;;;27.90;62.60;;;;;;5051225;28;20237;-65
2023/07/17 10:05:24;;;;;;;2.50;2.03;;;28.00;62.80;;;;;;5049005;28;20190;-65
2023/07/17 10:07:52;;;;;;;2.20;2.00;;;28.10;62.50;;;;;;5045461;28;20198;-65
2023/07/17 10:10:19;;;;;;;2.42;2.20;;;28.30;61.00;;;;;;5051909;28;20628;-65
2023/07/17 10:12:48;;;;;;;2.72;2.22;;;28.30;60.50;;;;;;5048995;28;20215;-65
2023/07/17 10:15:15;;;;;;;2.30;2.13;;;28.40;58.80;;;;;;5050939;28;20512;-66
2023/07/17 10:17:44;;;;;;;2.33;2.13;;;28.40;58.80;;;;;;5048895;28;20285;-65
2023/07/17 10:20:12;;;;;;;2.28;2.08;;;28.50;57.20;;;;;;5049491;28;20689;-66
2023/07/17 10:22:43;;;;;;;2.30;2.10;;;28.60;57.40;;;;;;5049473;28;20557;-66
2023/07/17 10:25:26;;;;;;;1.70;1.60;;;28.70;57.60;;;;;;5050666;28;20194;-66
2023/07/17 10:27:57;;;;;;;1.75;1.65;;;28.70;57.90;;;;;;5045444;28;20213;-66
2023/07/17 10:30:27;;;;;;;1.70;1.60;;;28.70;58.30;;;;;;5050013;28;20864;-66
2023/07/17 10:33:23;;;;;;;1.30;1.30;;;28.70;58.60;;;;;;5046823;28;20204;-65
2023/07/17 10:35:52;;;;;;;5.82;1.90;;;28.60;58.90;;;;;;5002052;28;20206;-66
2023/07/17 10:38:24;;;;;;;3.83;2.08;;;28.60;58.10;;;;;;5049175;28;20633;-66
2023/07/17 10:41:01;;;;;;;1.90;1.80;;;28.50;57.60;;;;;;5046889;28;20210;-66
2023/07/17 10:43:29;;;;;;;1.98;1.88;;;28.40;57.70;;;;;;5032989;28;20216;-66
2023/07/17 10:45:56;;;;;;;2.08;1.95;;;28.40;57.50;;;;;;5049890;28;20189;-65
2023/07/17 10:51:16;;;;;;;6.18;2.45;;;28.30;56.00;;;;;;5044577;28;20198;-67
2023/07/17 10:53:43;;;;;;;2.65;2.25;;;28.30;55.70;;;;;;5050554;28;20204;-66
2023/07/17 10:56:10;;;;;;;3.60;2.08;;;28.20;55.90;;;;;;5049870;28;20795;-65
2023/07/17 10:58:37;;;;;;;2.03;1.92;;;28.20;55.50;;;;;;5045017;28;20201;-66
2023/07/17 11:01:05;;;;;;;3.40;2.05;;;28.30;56.00;;;;;;5041784;28;20213;-65
2023/07/17 11:03:34;;;;;;;2.03;1.92;;;28.20;55.80;;;;;;5043951;28;20324;-64
2023/07/17 11:06:01;;;;;;;4.10;1.98;;;28.10;56.00;;;;;;5047929;28;20209;-65
2023/07/17 11:08:28;;;;;;;2.58;2.35;;;28.10;55.40;;;;;;5028025;28;20636;-65
2023/07/17 11:10:55;;;;;;;2.83;2.45;;;28.10;54.80;;;;;;5031418;28;20257;-65
2023/07/17 11:13:22;;;;;;;2.25;2.15;;;28.00;54.80;;;;;;5049194;28;20204;-65
2023/07/17 11:15:49;;;;;;;3.03;2.15;;;28.10;55.10;;;;;;5049954;28;20235;-65
2023/07/17 11:18:17;;;;;;;2.50;2.40;;;28.10;55.40;;;;;;5031314;28;20252;-65
2023/07/17 11:20:46;;;;;;;2.50;2.30;;;28.10;55.00;;;;;;5050159;28;20217;-66
2023/07/17 11:23:13;;;;;;;2.17;2.08;;;28.00;55.00;;;;;;5031702;28;20194;-66
2023/07/17 11:25:41;;;;;;;2.30;2.20;;;28.00;55.20;;;;;;5050093;28;20190;-66
2023/07/17 11:28:08;;;;;;;2.70;2.22;;;28.10;55.60;;;;;;5048099;28;20235;-65
2023/07/17 11:30:37;;;;;;;1.98;1.88;;;28.10;55.50;;;;;;5039626;28;20388;-66
2023/07/17 11:33:08;;;;;;;2.13;1.98;;;28.20;55.60;;;;;;5030456;28;20313;-66
2023/07/17 11:35:48;;;;;;;2.55;2.35;;;28.40;55.60;;;;;;5049280;28;20221;-65
2023/07/17 11:38:18;;;;;;;1.45;1.45;;;28.50;54.90;;;;;;5048124;28;20198;-65
2023/07/17 11:40:57;;;;;;;1.70;1.60;;;28.60;55.10;;;;;;5049099;28;20292;-64
2023/07/17 11:43:29;;;;;;;2.10;2.00;;;28.70;55.10;;;;;;5048440;28;20278;-65
2023/07/17 11:46:01;;;;;;;3.35;2.10;;;28.90;54.40;;;;;;5049267;28;20205;-65
2023/07/17 11:48:28;;;;;;;4.30;2.00;;;29.00;54.70;;;;;;5047645;28;20194;-65
2023/07/17 11:50:58;;;;;;;1.75;1.65;;;29.00;56.90;;;;;;5047962;28;20217;-65
2023/07/17 11:53:26;;;;;;;2.03;1.67;;;29.10;59.70;;;;;;5044701;28;20244;-65
2023/07/17 11:55:55;;;;;;;2.20;2.00;;;29.10;62.80;;;;;;5050987;28;20226;-66
2023/07/17 11:58:24;;;;;;;3.50;2.20;;;29.00;67.00;;;;;;5030409;28;20301;-65
2023/07/17 12:00:54;;;;;;;2.72;1.90;;;28.90;69.00;;;;;;5038869;28;20217;-65
2023/07/17 12:03:21;;;;;;;3.33;1.90;;;28.80;70.70;;;;;;5046248;28;20226;-65
2023/07/17 12:05:49;;;;;;;4.50;2.08;;;28.60;73.00;;;;;;5032301;28;20672;-65
2023/07/17 12:08:17;;;;;;;5.25;2.33;;;28.40;75.20;;;;;;5046578;28;20247;-66
2023/07/17 12:10:45;;;;;;;3.65;2.50;;;28.30;77.30;;;;;;5047319;28;20570;-65
2023/07/17 12:13:12;;;;;;;3.83;2.47;;;28.10;78.10;;;;;;5046886;28;20206;-66
2023/07/17 12:15:39;;;;;;;9.27;2.88;;;27.90;78.80;;;;;;5047258;28;20241;-65
2023/07/17 12:18:06;;;;;;;2.67;2.10;;;27.80;79.50;;;;;;5048270;28;20206;-65
2023/07/17 12:20:33;;;;;;;5.38;2.25;;;27.60;79.90;;;;;;5046765;28;20220;-65
2023/07/17 12:23:02;;;;;;;3.95;1.92;;;27.50;79.90;;;;;;5047527;28;20272;-65
2023/07/17 12:25:31;;;;;;;1.73;1.63;;;27.40;79.90;;;;;;5048582;28;20243;-65
2023/07/17 12:28:11;;;;;;;1.50;1.40;;;27.30;79.70;;;;;;5046871;28;20186;-66
2023/07/17 12:30:38;;;;;;;1.85;1.73;;;27.20;79.40;;;;;;5027810;28;20244;-65
2023/07/17 12:33:05;;;;;;;1.60;1.50;;;27.20;78.70;;;;;;5047224;28;20213;-65
2023/07/17 12:35:32;;;;;;;3.80;1.63;;;27.10;78.70;;;;;;5046309;28;20233;-66
2023/07/17 12:37:59;;;;;;;2.53;1.77;;;27.00;78.70;;;;;;5046772;28;20198;-66
2023/07/17 12:40:26;;;;;;;3.50;1.92;;;27.00;78.90;;;;;;5047647;28;20323;-66
2023/07/17 12:43:33;;;;;;;2.13;1.90;;;27.00;79.70;;;;;;5046657;28;20198;-67
2023/07/17 12:46:03;;;;;;;3.67;1.90;;;27.00;79.40;;;;;;5043597;28;20210;-65
2023/07/17 12:48:34;;;;;;;1.50;1.40;;;26.90;80.10;;;;;;5047690;28;20198;-66
2023/07/17 12:51:10;;;;;;;3.72;1.88;;;26.90;81.00;;;;;;5033346;28;20200;-66
2023/07/17 12:53:37;;;;;;;6.85;2.13;;;26.80;81.80;;;;;;5047395;28;20680;-66
2023/07/17 12:56:05;;;;;;;2.10;1.90;;;26.70;82.80;;;;;;5046982;28;20239;-66
2023/07/17 12:58:33;;;;;;;4.15;1.90;;;26.60;83.20;;;;;;5046875;28;20206;-73